Time,TemperatureF,DewpointF,PressureIn,WindDirection,WindDirectionDegrees,WindSpeedMPH,WindSpeedGustMPH,Humidity,HourlyPrecipIn,Conditions,Clouds,dailyrainin,SoftwareType,DateUTC
2013-02-12 00:00:00,62.4,60.3,30.08,West,265,0.0,0.0,93,0.00,,,0.00,Wunderground v.1.15,2013-02-12 05:00:00,
2013-02-12 00:05:00,62.3,60.2,30.08,West,265,0.0,0.0,93,0.00,,,0.00,Wunderground v.1.15,2013-02-12 05:05:00,
2013-02-12 00:10:00,62.2,60.2,30.08,West,265,0.0,0.0,93,0.00,,,0.00,Wunderground v.1.15,2013-02-12 05:10:00,
2013-02-12 00:15:00,62.1,60.1,30.08,West,265,0.0,0.0,93,0.00,,,0.00,Wunderground v.1.15,2013-02-12 05:15:00,
2013-02-12 00:25:00,61.9,60.2,30.08,West,265,0.0,0.0,94,0.00,,,0.00,Wunderground v.1.15,2013-02-12 05:25:00,
2013-02-12 00:35:00,61.7,60.0,30.08,West,265,0.0,0.0,94,0.00,,,0.00,Wunderground v.1.15,2013-02-12 05:35:00,
2013-02-12 00:40:00,61.6,59.9,30.08,West,265,0.0,0.0,94,0.00,,,0.00,Wunderground v.1.15,2013-02-12 05:40:00,
2013-02-12 00:50:00,61.5,59.8,30.08,West,265,0.0,0.0,94,0.00,,,0.00,Wunderground v.1.15,2013-02-12 05:50:00,
2013-02-12 00:55:00,61.4,59.7,30.08,West,265,0.0,0.0,94,0.00,,,0.00,Wunderground v.1.15,2013-02-12 05:55:00,
2013-02-12 01:00:00,61.4,59.7,30.08,West,265,0.0,0.0,94,0.00,,,0.00,Wunderground v.1.15,2013-02-12 06:00:00,
2013-02-12 01:10:00,61.3,59.6,30.08,West,265,0.0,0.0,94,0.00,,,0.00,Wunderground v.1.15,2013-02-12 06:10:00,
2013-02-12 01:15:00,61.2,59.8,30.08,West,265,0.0,0.0,95,0.00,,,0.00,Wunderground v.1.15,2013-02-12 06:15:00,
2013-02-12 01:25:00,61.2,59.8,30.08,West,265,0.0,0.0,95,0.00,,,0.00,Wunderground v.1.15,2013-02-12 06:25:00,
2013-02-12 01:35:00,61.1,59.4,30.08,West,265,0.0,0.0,94,0.00,,,0.00,Wunderground v.1.15,2013-02-12 06:35:00,
2013-02-12 01:40:00,61.1,59.7,30.08,West,265,0.0,0.0,95,0.00,,,0.00,Wunderground v.1.15,2013-02-12 06:40:00,
2013-02-12 01:50:00,62.0,60.8,30.07,SW,219,0.0,0.0,96,0.00,,,0.00,Wunderground v.1.15,2013-02-12 06:50:00,
2013-02-12 02:00:00,62.5,61.3,30.07,SW,219,0.0,0.0,96,0.00,,,0.00,Wunderground v.1.15,2013-02-12 07:00:00,
2013-02-12 02:05:00,62.5,61.3,30.07,SW,219,0.0,0.0,96,0.00,,,0.00,Wunderground v.1.15,2013-02-12 07:05:00,
2013-02-12 02:15:00,62.4,61.2,30.07,SW,219,0.0,0.0,96,0.00,,,0.00,Wunderground v.1.15,2013-02-12 07:15:00,
2013-02-12 02:20:00,62.3,61.1,30.07,SW,219,0.0,0.0,96,0.00,,,0.00,Wunderground v.1.15,2013-02-12 07:20:00,
2013-02-12 02:30:00,62.3,61.1,30.06,SW,219,0.0,0.0,96,0.00,,,0.00,Wunderground v.1.15,2013-02-12 07:30:00,
2013-02-12 02:35:00,62.2,61.0,30.06,SW,219,0.0,0.0,96,0.00,,,0.00,Wunderground v.1.15,2013-02-12 07:35:00,
2013-02-12 02:45:00,62.1,60.9,30.06,SW,219,0.0,0.0,96,0.00,,,0.00,Wunderground v.1.15,2013-02-12 07:45:00,
2013-02-12 02:55:00,62.0,60.8,30.06,SW,219,0.0,0.0,96,0.00,,,0.00,Wunderground v.1.15,2013-02-12 07:55:00,
2013-02-12 03:05:00,62.0,60.8,30.06,SW,219,0.0,0.0,96,0.00,,,0.00,Wunderground v.1.15,2013-02-12 08:05:00,
2013-02-12 03:10:00,62.1,60.9,30.06,SW,219,0.0,0.0,96,0.00,,,0.00,Wunderground v.1.15,2013-02-12 08:10:00,
2013-02-12 03:15:00,62.0,60.8,30.06,SW,219,0.0,0.0,96,0.00,,,0.00,Wunderground v.1.15,2013-02-12 08:15:00,
2013-02-12 03:25:00,62.0,60.8,30.06,SW,219,0.0,0.0,96,0.00,,,0.00,Wunderground v.1.15,2013-02-12 08:25:00,
2013-02-12 03:30:00,62.1,61.2,30.06,SW,219,0.0,0.0,97,0.00,,,0.00,Wunderground v.1.15,2013-02-12 08:30:00,
2013-02-12 03:40:00,62.1,61.2,30.06,SW,219,0.0,0.0,97,0.00,,,0.00,Wunderground v.1.15,2013-02-12 08:40:00,
2013-02-12 03:50:00,62.1,61.2,30.06,SW,219,0.0,0.0,97,0.00,,,0.00,Wunderground v.1.15,2013-02-12 08:50:00,
2013-02-12 03:55:00,62.0,61.1,30.06,SW,219,0.0,0.0,97,0.00,,,0.00,Wunderground v.1.15,2013-02-12 08:55:00,
2013-02-12 04:05:00,62.0,61.1,30.06,SW,219,0.0,0.0,97,0.00,,,0.00,Wunderground v.1.15,2013-02-12 09:05:00,
2013-02-12 04:10:00,61.8,60.6,30.06,SW,219,0.0,0.0,96,0.00,,,0.00,Wunderground v.1.15,2013-02-12 09:10:00,
2013-02-12 04:15:00,61.6,60.4,30.06,SW,219,0.0,0.0,96,0.00,,,0.00,Wunderground v.1.15,2013-02-12 09:15:00,
2013-02-12 04:20:00,61.4,60.2,30.06,SW,219,0.0,0.0,96,0.00,,,0.00,Wunderground v.1.15,2013-02-12 09:20:00,
2013-02-12 04:30:00,61.2,60.1,30.06,SW,219,0.0,0.0,96,0.00,,,0.00,Wunderground v.1.15,2013-02-12 09:30:00,
2013-02-12 04:40:00,60.9,59.8,30.05,SW,219,0.0,0.0,96,0.00,,,0.00,Wunderground v.1.15,2013-02-12 09:40:00,
2013-02-12 04:45:00,60.8,59.7,30.05,SW,219,0.0,0.0,96,0.00,,,0.00,Wunderground v.1.15,2013-02-12 09:45:00,
2013-02-12 04:55:00,60.7,59.6,30.05,SW,219,0.0,0.0,96,0.00,,,0.00,Wunderground v.1.15,2013-02-12 09:55:00,
2013-02-12 05:00:00,60.7,59.8,30.05,SW,219,0.0,0.0,97,0.00,,,0.00,Wunderground v.1.15,2013-02-12 10:00:00,
2013-02-12 05:10:00,60.7,59.8,30.05,SW,219,0.0,0.0,97,0.00,,,0.00,Wunderground v.1.15,2013-02-12 10:10:00,
2013-02-12 05:15:00,60.7,59.8,30.06,SW,219,0.0,0.0,97,0.00,,,0.00,Wunderground v.1.15,2013-02-12 10:15:00,
2013-02-12 05:20:00,60.8,59.9,30.06,SW,219,0.0,0.0,97,0.00,,,0.00,Wunderground v.1.15,2013-02-12 10:20:00,
2013-02-12 05:30:00,60.8,59.9,30.06,SW,219,0.0,0.0,97,0.00,,,0.00,Wunderground v.1.15,2013-02-12 10:30:00,
2013-02-12 05:40:00,60.8,59.9,30.06,SW,219,0.0,0.0,97,0.00,,,0.00,Wunderground v.1.15,2013-02-12 10:40:00,
2013-02-12 05:45:00,60.7,59.8,30.06,SW,219,0.0,0.0,97,0.00,,,0.00,Wunderground v.1.15,2013-02-12 10:45:00,
2013-02-12 05:55:00,60.8,59.9,30.06,SW,219,0.0,0.0,97,0.00,,,0.00,Wunderground v.1.15,2013-02-12 10:55:00,
2013-02-12 06:00:00,61.0,60.1,30.06,SW,219,0.0,0.0,97,0.00,,,0.00,Wunderground v.1.15,2013-02-12 11:00:00,
2013-02-12 06:10:00,61.2,60.3,30.06,SW,219,0.0,0.0,97,0.00,,,0.00,Wunderground v.1.15,2013-02-12 11:10:00,
2013-02-12 06:15:00,61.4,60.8,30.06,SW,219,0.0,0.0,98,0.00,,,0.00,Wunderground v.1.15,2013-02-12 11:15:00,
2013-02-12 06:25:00,61.6,61.0,30.06,SW,219,0.0,0.0,98,0.00,,,0.00,Wunderground v.1.15,2013-02-12 11:25:00,
2013-02-12 06:30:00,61.6,61.0,30.07,SW,219,0.0,0.0,98,0.00,,,0.00,Wunderground v.1.15,2013-02-12 11:30:00,
2013-02-12 06:40:00,61.7,61.1,30.07,SW,219,0.0,0.0,98,0.00,,,0.00,Wunderground v.1.15,2013-02-12 11:40:00,
2013-02-12 06:50:00,61.7,61.1,30.07,SW,219,0.0,0.0,98,0.00,,,0.00,Wunderground v.1.15,2013-02-12 11:50:00,
2013-02-12 07:00:00,61.6,61.0,30.07,SW,219,0.0,0.0,98,0.00,,,0.00,Wunderground v.1.15,2013-02-12 12:00:00,
2013-02-12 07:05:00,61.6,61.0,30.07,SW,219,0.0,0.0,98,0.00,,,0.00,Wunderground v.1.15,2013-02-12 12:05:00,
2013-02-12 07:15:00,61.6,61.0,30.07,SW,219,0.0,1.0,98,0.00,,,0.00,Wunderground v.1.15,2013-02-12 12:15:00,
2013-02-12 07:20:00,61.6,61.0,30.07,SW,219,0.0,0.0,98,0.00,,,0.00,Wunderground v.1.15,2013-02-12 12:20:00,
2013-02-12 07:30:00,61.7,61.1,30.08,SW,219,0.0,0.0,98,0.00,,,0.00,Wunderground v.1.15,2013-02-12 12:30:00,
2013-02-12 07:35:00,61.7,61.1,30.08,SW,219,0.0,0.0,98,0.00,,,0.00,Wunderground v.1.15,2013-02-12 12:35:00,
2013-02-12 07:40:00,61.8,61.2,30.08,SW,219,0.0,0.0,98,0.00,,,0.00,Wunderground v.1.15,2013-02-12 12:40:00,
2013-02-12 07:50:00,61.9,61.3,30.08,SW,219,0.0,0.0,98,0.00,,,0.00,Wunderground v.1.15,2013-02-12 12:50:00,
2013-02-12 08:00:00,62.0,61.4,30.08,SSW,211,0.0,0.0,98,0.00,,,0.00,Wunderground v.1.15,2013-02-12 13:00:00,
2013-02-12 08:05:00,62.2,61.6,30.08,SSW,205,0.0,0.0,98,0.00,,,0.00,Wunderground v.1.15,2013-02-12 13:05:00,
2013-02-12 08:10:00,62.3,61.7,30.08,SW,219,0.0,0.0,98,0.00,,,0.00,Wunderground v.1.15,2013-02-12 13:10:00,
2013-02-12 08:20:00,62.7,62.1,30.08,SW,219,0.0,0.0,98,0.00,,,0.00,Wunderground v.1.15,2013-02-12 13:20:00,
2013-02-12 08:25:00,63.0,62.4,30.08,SW,229,0.0,0.0,98,0.00,,,0.00,Wunderground v.1.15,2013-02-12 13:25:00,
2013-02-12 08:35:00,63.5,62.9,30.08,SW,234,1.0,1.0,98,0.00,,,0.00,Wunderground v.1.15,2013-02-12 13:35:00,
2013-02-12 08:45:00,63.7,63.1,30.08,SW,214,1.0,1.0,98,0.00,,,0.00,Wunderground v.1.15,2013-02-12 13:45:00,
2013-02-12 08:50:00,63.9,63.3,30.08,SW,215,1.0,1.0,98,0.00,,,0.00,Wunderground v.1.15,2013-02-12 13:50:00,
2013-02-12 09:00:00,64.4,63.8,30.09,West,271,0.0,0.0,98,0.00,,,0.00,Wunderground v.1.15,2013-02-12 14:00:00,
2013-02-12 09:05:00,64.8,64.2,30.09,WSW,251,0.0,3.0,98,0.00,,,0.00,Wunderground v.1.15,2013-02-12 14:05:00,
2013-02-12 09:15:00,65.0,64.4,30.09,West,272,1.0,1.0,98,0.00,,,0.00,Wunderground v.1.15,2013-02-12 14:15:00,
2013-02-12 09:20:00,65.2,64.6,30.09,South,182,1.0,1.0,98,0.00,,,0.00,Wunderground v.1.15,2013-02-12 14:20:00,
2013-02-12 09:30:00,65.5,64.9,30.09,West,270,1.0,1.0,98,0.00,,,0.00,Wunderground v.1.15,2013-02-12 14:30:00,
2013-02-12 09:40:00,66.0,65.1,30.09,SW,234,1.0,1.0,97,0.00,,,0.00,Wunderground v.1.15,2013-02-12 14:40:00,
2013-02-12 09:45:00,66.3,65.4,30.09,WSW,254,1.0,1.0,97,0.00,,,0.00,Wunderground v.1.15,2013-02-12 14:45:00,
2013-02-12 09:50:00,66.8,65.6,30.09,SW,224,1.0,1.0,96,0.00,,,0.00,Wunderground v.1.15,2013-02-12 14:50:00,
2013-02-12 09:55:00,67.3,66.1,30.09,WSW,252,1.0,1.0,96,0.00,,,0.00,Wunderground v.1.15,2013-02-12 14:55:00,
2013-02-12 10:05:00,68.1,66.6,30.09,South,188,1.0,1.0,95,0.00,,,0.00,Wunderground v.1.15,2013-02-12 15:05:00,
2013-02-12 10:15:00,68.9,67.1,30.10,SSW,208,2.0,3.0,94,0.00,,,0.00,Wunderground v.1.15,2013-02-12 15:15:00,
2013-02-12 10:20:00,69.4,67.3,30.09,West,271,2.0,2.0,93,0.00,,,0.00,Wunderground v.1.15,2013-02-12 15:20:00,
2013-02-12 10:30:00,70.6,67.5,30.09,SSE,161,3.0,3.0,90,0.00,,,0.00,Wunderground v.1.15,2013-02-12 15:30:00,
2013-02-12 10:40:00,71.9,68.2,30.09,WSW,257,2.0,2.0,88,0.00,,,0.00,Wunderground v.1.15,2013-02-12 15:40:00,
2013-02-12 10:45:00,72.8,68.4,30.08,SSW,200,3.0,3.0,86,0.00,,,0.00,Wunderground v.1.15,2013-02-12 15:45:00,
2013-02-12 10:55:00,74.4,68.9,30.08,South,184,2.0,4.0,83,0.00,,,0.00,Wunderground v.1.15,2013-02-12 15:55:00,
2013-02-12 11:00:00,75.1,68.5,30.08,SW,221,3.0,3.0,80,0.00,,,0.00,Wunderground v.1.15,2013-02-12 16:00:00,
2013-02-12 11:05:00,75.7,68.4,30.08,WSW,257,3.0,3.0,78,0.00,,,0.00,Wunderground v.1.15,2013-02-12 16:05:00,
2013-02-12 11:15:00,76.1,68.0,30.07,SSW,199,3.0,3.0,76,0.00,,,0.00,Wunderground v.1.15,2013-02-12 16:15:00,
2013-02-12 11:25:00,77.0,68.1,30.07,SW,227,3.0,9.0,74,0.00,,,0.00,Wunderground v.1.15,2013-02-12 16:25:00,
2013-02-12 11:30:00,77.3,67.6,30.07,WSW,240,3.0,3.0,72,0.00,,,0.00,Wunderground v.1.15,2013-02-12 16:30:00,
2013-02-12 11:40:00,78.2,67.2,30.06,WSW,246,3.0,3.0,69,0.00,,,0.00,Wunderground v.1.15,2013-02-12 16:40:00,
2013-02-12 11:45:00,78.4,67.4,30.06,SE,135,3.0,3.0,69,0.00,,,0.00,Wunderground v.1.15,2013-02-12 16:45:00,
2013-02-12 11:50:00,78.8,67.8,30.05,West,278,4.0,8.0,69,0.00,,,0.00,Wunderground v.1.15,2013-02-12 16:50:00,
2013-02-12 12:00:00,79.6,68.1,30.05,SW,229,3.0,3.0,68,0.00,,,0.00,Wunderground v.1.15,2013-02-12 17:00:00,
2013-02-12 12:10:00,79.9,68.0,30.04,West,275,3.0,4.0,67,0.00,,,0.00,Wunderground v.1.15,2013-02-12 17:10:00,
2013-02-12 12:15:00,79.9,68.0,30.04,WSW,244,4.0,4.0,67,0.00,,,0.00,Wunderground v.1.15,2013-02-12 17:15:00,
2013-02-12 12:20:00,80.0,67.6,30.03,West,265,4.0,5.0,66,0.00,,,0.00,Wunderground v.1.15,2013-02-12 17:20:00,
2013-02-12 12:30:00,80.1,67.3,30.03,SW,219,3.0,5.0,65,0.00,,,0.00,Wunderground v.1.15,2013-02-12 17:30:00,
2013-02-12 12:35:00,79.8,67.0,30.02,SSE,159,3.0,5.0,65,0.00,,,0.00,Wunderground v.1.15,2013-02-12 17:35:00,
2013-02-12 12:45:00,80.0,67.2,30.02,SSW,200,3.0,3.0,65,0.00,,,0.00,Wunderground v.1.15,2013-02-12 17:45:00,
2013-02-12 12:55:00,81.1,66.8,30.01,South,188,3.0,5.0,62,0.00,,,0.00,Wunderground v.1.15,2013-02-12 17:55:00,
2013-02-12 13:00:00,81.5,66.8,30.01,SW,215,3.0,6.0,61,0.00,,,0.00,Wunderground v.1.15,2013-02-12 18:00:00,
2013-02-12 13:10:00,82.4,66.6,30.00,West,276,3.0,3.0,59,0.00,,,0.00,Wunderground v.1.15,2013-02-12 18:10:00,
2013-02-12 13:15:00,82.6,66.3,29.99,WSW,250,3.0,4.0,58,0.00,,,0.00,Wunderground v.1.15,2013-02-12 18:15:00,
2013-02-12 13:25:00,83.1,66.3,29.99,WSW,239,3.0,4.0,57,0.00,,,0.00,Wunderground v.1.15,2013-02-12 18:25:00,
2013-02-12 13:30:00,83.2,65.4,29.99,SW,221,3.0,4.0,55,0.00,,,0.00,Wunderground v.1.15,2013-02-12 18:30:00,
2013-02-12 13:40:00,83.4,65.5,29.98,SW,216,4.0,4.0,55,0.00,,,0.00,Wunderground v.1.15,2013-02-12 18:40:00,
2013-02-12 13:45:00,83.3,66.0,29.97,SW,219,4.0,4.0,56,0.00,,,0.00,Wunderground v.1.15,2013-02-12 18:45:00,
2013-02-12 13:55:00,83.6,65.7,29.96,SW,219,3.0,4.0,55,0.00,,,0.00,Wunderground v.1.15,2013-02-12 18:55:00,
2013-02-12 14:00:00,83.7,66.3,29.96,SSE,157,3.0,5.0,56,0.00,,,0.00,Wunderground v.1.15,2013-02-12 19:00:00,
2013-02-12 14:10:00,83.8,66.4,29.96,ESE,113,3.0,3.0,56,0.00,,,0.00,Wunderground v.1.15,2013-02-12 19:10:00,
2013-02-12 14:15:00,83.6,65.7,29.97,South,188,3.0,5.0,55,0.00,,,0.00,Wunderground v.1.15,2013-02-12 19:15:00,
2013-02-12 14:25:00,82.2,64.9,29.96,SSE,156,3.0,5.0,56,0.00,,,0.00,Wunderground v.1.15,2013-02-12 19:25:00,
2013-02-12 14:30:00,82.0,64.8,29.97,SW,224,3.0,3.0,56,0.00,,,0.00,Wunderground v.1.15,2013-02-12 19:30:00,
2013-02-12 14:40:00,82.9,64.5,29.96,WSW,248,3.0,3.0,54,0.00,,,0.00,Wunderground v.1.15,2013-02-12 19:40:00,
2013-02-12 14:45:00,82.6,64.8,29.96,WSW,245,3.0,4.0,55,0.00,,,0.00,Wunderground v.1.15,2013-02-12 19:45:00,
2013-02-12 14:55:00,82.7,64.9,29.95,West,265,3.0,3.0,55,0.00,,,0.00,Wunderground v.1.15,2013-02-12 19:55:00,
2013-02-12 15:00:00,82.7,64.9,29.95,WSW,240,3.0,3.0,55,0.00,,,0.00,Wunderground v.1.15,2013-02-12 20:00:00,
2013-02-12 15:10:00,84.0,64.5,29.95,SW,222,3.0,3.0,52,0.00,,,0.00,Wunderground v.1.15,2013-02-12 20:10:00,
2013-02-12 15:15:00,83.7,64.2,29.95,South,190,3.0,3.0,52,0.00,,,0.00,Wunderground v.1.15,2013-02-12 20:15:00,
2013-02-12 15:20:00,83.0,64.6,29.95,WSW,247,3.0,3.0,54,0.00,,,0.00,Wunderground v.1.15,2013-02-12 20:20:00,
2013-02-12 15:30:00,82.1,64.3,29.94,West,264,2.0,2.0,55,0.00,,,0.00,Wunderground v.1.15,2013-02-12 20:30:00,
2013-02-12 15:40:00,81.9,64.7,29.93,SW,232,1.0,1.0,56,0.00,,,0.00,Wunderground v.1.15,2013-02-12 20:40:00,
2013-02-12 15:45:00,81.9,64.7,29.93,West,265,2.0,2.0,56,0.00,,,0.00,Wunderground v.1.15,2013-02-12 20:45:00,
2013-02-12 15:55:00,82.2,64.4,29.93,SW,231,3.0,5.0,55,0.00,,,0.00,Wunderground v.1.15,2013-02-12 20:55:00,
2013-02-12 16:00:00,82.3,64.5,29.93,South,179,3.0,3.0,55,0.00,,,0.00,Wunderground v.1.15,2013-02-12 21:00:00,
2013-02-12 16:10:00,82.2,64.4,29.93,SW,228,3.0,5.0,55,0.00,,,0.00,Wunderground v.1.15,2013-02-12 21:10:00,
2013-02-12 16:15:00,82.1,64.3,29.93,WNW,298,2.0,5.0,55,0.00,,,0.00,Wunderground v.1.15,2013-02-12 21:15:00,
2013-02-12 16:20:00,82.0,64.8,29.93,SW,228,1.0,1.0,56,0.00,,,0.00,Wunderground v.1.15,2013-02-12 21:20:00,
2013-02-12 16:30:00,82.1,64.8,29.93,SW,219,1.0,2.0,56,0.00,,,0.00,Wunderground v.1.15,2013-02-12 21:30:00,
2013-02-12 16:35:00,82.1,64.8,29.92,WSW,243,2.0,3.0,56,0.00,,,0.00,Wunderground v.1.15,2013-02-12 21:35:00,
2013-02-12 16:45:00,81.7,64.5,29.92,SW,217,2.0,3.0,56,0.00,,,0.00,Wunderground v.1.15,2013-02-12 21:45:00,
2013-02-12 16:50:00,81.4,64.7,29.92,SSW,212,2.0,2.0,57,0.00,,,0.00,Wunderground v.1.15,2013-02-12 21:50:00,
2013-02-12 17:00:00,81.0,64.8,29.92,SW,229,2.0,2.0,58,0.00,,,0.00,Wunderground v.1.15,2013-02-12 22:00:00,
2013-02-12 17:05:00,81.0,64.8,29.92,West,261,2.0,2.0,58,0.00,,,0.00,Wunderground v.1.15,2013-02-12 22:05:00,
2013-02-12 17:15:00,80.9,64.7,29.92,SSE,162,2.0,2.0,58,0.00,,,0.00,Wunderground v.1.15,2013-02-12 22:15:00,
2013-02-12 17:25:00,80.8,64.6,29.92,WSW,249,2.0,3.0,58,0.00,,,0.00,Wunderground v.1.15,2013-02-12 22:25:00,
2013-02-12 17:30:00,80.8,64.6,29.92,West,270,2.0,2.0,58,0.00,,,0.00,Wunderground v.1.15,2013-02-12 22:30:00,
2013-02-12 17:40:00,80.7,64.5,29.92,WSW,238,1.0,1.0,58,0.00,,,0.00,Wunderground v.1.15,2013-02-12 22:40:00,
2013-02-12 17:45:00,80.5,64.9,29.92,WSW,242,2.0,5.0,59,0.00,,,0.00,Wunderground v.1.15,2013-02-12 22:45:00,
2013-02-12 17:55:00,79.9,64.8,29.92,SW,230,2.0,4.0,60,0.00,,,0.00,Wunderground v.1.15,2013-02-12 22:55:00,
2013-02-12 18:00:00,79.5,64.9,29.92,SW,232,1.0,1.0,61,0.00,,,0.00,Wunderground v.1.15,2013-02-12 23:00:00,
2013-02-12 18:10:00,78.9,64.8,29.92,West,265,1.0,1.0,62,0.00,,,0.00,Wunderground v.1.15,2013-02-12 23:10:00,
2013-02-12 18:15:00,78.6,63.6,29.92,West,277,2.0,2.0,60,0.00,,,0.00,Wunderground v.1.15,2013-02-12 23:15:00,
2013-02-12 18:25:00,78.1,64.9,29.92,SW,236,1.0,2.0,64,0.00,,,0.00,Wunderground v.1.15,2013-02-12 23:25:00,
2013-02-12 18:30:00,77.8,63.7,29.92,WSW,255,1.0,2.0,62,0.00,,,0.00,Wunderground v.1.15,2013-02-12 23:30:00,
2013-02-12 18:35:00,77.4,63.4,29.92,West,271,1.0,2.0,62,0.00,,,0.00,Wunderground v.1.15,2013-02-12 23:35:00,
2013-02-12 18:45:00,77.1,63.1,29.92,SW,236,2.0,2.0,62,0.00,,,0.00,Wunderground v.1.15,2013-02-12 23:45:00,
2013-02-12 18:50:00,76.9,62.9,29.92,SSW,210,1.0,1.0,62,0.00,,,0.00,Wunderground v.1.15,2013-02-12 23:50:00,
2013-02-12 19:00:00,76.6,63.1,29.92,SW,232,1.0,1.0,63,0.00,,,0.00,Wunderground v.1.15,2013-02-13 00:00:00,
2013-02-12 19:10:00,76.1,63.0,29.92,South,178,1.0,1.0,64,0.00,,,0.00,Wunderground v.1.15,2013-02-13 00:10:00,
2013-02-12 19:20:00,75.7,63.5,29.92,WNW,291,1.0,1.0,66,0.00,,,0.00,Wunderground v.1.15,2013-02-13 00:20:00,
2013-02-12 19:25:00,75.5,63.8,29.93,SSW,213,1.0,1.0,67,0.00,,,0.00,Wunderground v.1.15,2013-02-13 00:25:00,
2013-02-12 19:35:00,75.0,63.7,29.93,SW,216,0.0,1.0,68,0.00,,,0.00,Wunderground v.1.15,2013-02-13 00:35:00,
2013-02-12 19:40:00,74.8,63.9,29.93,SW,216,0.0,0.0,69,0.00,,,0.00,Wunderground v.1.15,2013-02-13 00:40:00,
2013-02-12 19:45:00,74.4,64.0,29.93,SW,216,0.0,0.0,70,0.00,,,0.00,Wunderground v.1.15,2013-02-13 00:45:00,
2013-02-12 19:55:00,73.7,64.1,29.93,South,184,0.0,0.0,72,0.00,,,0.00,Wunderground v.1.15,2013-02-13 00:55:00,
2013-02-12 20:00:00,73.4,64.6,29.93,SSE,155,0.0,0.0,74,0.00,,,0.00,Wunderground v.1.15,2013-02-13 01:00:00,
2013-02-12 20:10:00,73.1,65.5,29.93,WSW,252,1.0,1.0,77,0.00,,,0.00,Wunderground v.1.15,2013-02-13 01:10:00,
2013-02-12 20:15:00,73.1,65.8,29.93,SSW,211,1.0,1.0,78,0.00,,,0.00,Wunderground v.1.15,2013-02-13 01:15:00,
2013-02-12 20:25:00,73.1,66.2,29.93,WSW,250,1.0,1.0,79,0.00,,,0.00,Wunderground v.1.15,2013-02-13 01:25:00,
2013-02-12 20:30:00,73.0,66.1,29.93,WSW,241,1.0,1.0,79,0.00,,,0.00,Wunderground v.1.15,2013-02-13 01:30:00,
2013-02-12 20:40:00,72.8,66.3,29.93,WSW,244,2.0,4.0,80,0.00,,,0.00,Wunderground v.1.15,2013-02-13 01:40:00,
2013-02-12 20:45:00,72.8,66.3,29.93,WSW,239,2.0,4.0,80,0.00,,,0.00,Wunderground v.1.15,2013-02-13 01:45:00,
2013-02-12 20:55:00,72.6,66.1,29.93,West,261,1.0,3.0,80,0.00,,,0.00,Wunderground v.1.15,2013-02-13 01:55:00,
2013-02-12 21:00:00,72.5,66.0,29.93,South,173,1.0,1.0,80,0.00,,,0.00,Wunderground v.1.15,2013-02-13 02:00:00,
2013-02-12 21:05:00,72.4,65.9,29.93,WSW,237,1.0,1.0,80,0.00,,,0.00,Wunderground v.1.15,2013-02-13 02:05:00,
2013-02-12 21:15:00,72.2,66.0,29.93,West,269,1.0,5.0,81,0.00,,,0.00,Wunderground v.1.15,2013-02-13 02:15:00,
2013-02-12 21:25:00,72.0,66.2,29.94,SSW,202,1.0,2.0,82,0.00,,,0.00,Wunderground v.1.15,2013-02-13 02:25:00,
2013-02-12 21:30:00,71.9,66.5,29.94,WSW,238,1.0,1.0,83,0.00,,,0.00,Wunderground v.1.15,2013-02-13 02:30:00,
2013-02-12 21:35:00,71.8,66.7,29.94,WSW,238,1.0,3.0,84,0.00,,,0.00,Wunderground v.1.15,2013-02-13 02:35:00,
2013-02-12 21:45:00,71.7,66.9,29.94,SW,233,2.0,2.0,85,0.00,,,0.00,Wunderground v.1.15,2013-02-13 02:45:00,
2013-02-12 21:50:00,71.6,66.8,29.95,West,271,1.0,1.0,85,0.00,,,0.00,Wunderground v.1.15,2013-02-13 02:50:00,
2013-02-12 22:00:00,71.5,67.1,29.95,SW,217,1.0,2.0,86,0.00,,,0.00,Wunderground v.1.15,2013-02-13 03:00:00,
2013-02-12 22:05:00,71.3,67.2,29.95,NW,313,1.0,2.0,87,0.00,,,0.00,Wunderground v.1.15,2013-02-13 03:05:00,
2013-02-12 22:10:00,71.3,67.2,29.95,SSE,165,1.0,1.0,87,0.00,,,0.00,Wunderground v.1.15,2013-02-13 03:10:00,
2013-02-12 22:20:00,71.1,67.4,29.94,SW,233,1.0,1.0,88,0.00,,,0.00,Wunderground v.1.15,2013-02-13 03:20:00,
2013-02-12 22:30:00,70.9,67.2,29.94,WNW,284,1.0,1.0,88,0.00,,,0.00,Wunderground v.1.15,2013-02-13 03:30:00,
2013-02-12 22:35:00,70.8,67.4,29.95,SSW,211,1.0,1.0,89,0.00,,,0.00,Wunderground v.1.15,2013-02-13 03:35:00,
2013-02-12 22:45:00,70.6,67.5,29.94,NW,313,1.0,2.0,90,0.00,,,0.00,Wunderground v.1.15,2013-02-13 03:45:00,
2013-02-12 22:55:00,70.4,67.3,29.94,SW,234,2.0,2.0,90,0.00,,,0.00,Wunderground v.1.15,2013-02-13 03:55:00,
2013-02-12 23:00:00,70.3,67.2,29.94,South,169,1.0,1.0,90,0.00,,,0.00,Wunderground v.1.15,2013-02-13 04:00:00,
2013-02-12 23:10:00,70.1,67.3,29.94,SW,230,1.0,1.0,91,0.00,,,0.00,Wunderground v.1.15,2013-02-13 04:10:00,
2013-02-12 23:15:00,70.1,67.3,29.94,West,281,1.0,3.0,91,0.00,,,0.00,Wunderground v.1.15,2013-02-13 04:15:00,
2013-02-12 23:25:00,70.2,67.4,29.94,West,271,2.0,3.0,91,0.00,,,0.00,Wunderground v.1.15,2013-02-13 04:25:00,
2013-02-12 23:35:00,70.2,67.4,29.93,East,94,2.0,2.0,91,0.00,,,0.00,Wunderground v.1.15,2013-02-13 04:35:00,
2013-02-12 23:45:00,70.1,67.3,29.93,NW,304,1.0,1.0,91,0.00,,,0.00,Wunderground v.1.15,2013-02-13 04:45:00,
2013-02-12 23:50:00,70.1,67.3,29.93,West,270,2.0,3.0,91,0.00,,,0.00,Wunderground v.1.15,2013-02-13 04:50:00,
2013-02-12 23:55:00,70.0,67.3,29.93,SSW,205,2.0,3.0,91,0.00,,,0.00,Wunderground v.1.15,2013-02-13 04:55:00,